Accueil
METAR-TAF:

METAR-TAF

Aéroports :

Aéroport de Bergerac-Dordogne-Périgord

Bergerac, France

latitude: 44-49N, longitude: 000-31E, altitude: 51 m

Observation

Le bulletin a été fait il y a 19 minutes, à 15:30 UTC
Vent 9 kt de ouest
Température 31°C
Humidité 49%
Pression 1018 hPa
Visibilité 10 km ou plus

METAR: LFBE 211530Z AUTO 28009KT 9999 ///CB 31/19 Q1018 BECMG NSC

Heure: 17:49 (15:49 UTC)

Prévision

Le bulletin a été fait il y a 4 heures et 49 minutes, à 11:00 UTC
Prévision valable du 21 à 12 UTC au 22 à 12 UTC
Vent 8 kt de nord
Visibilité 10 km ou plus
pas de nuages en-dessous de 1500 mètres et pas de cumulonimbus.
Probabilité 30% :
Temporairement
du 21 à 14 UTC au 21 à 17 UTC
Nuages épars à une hauteur de 5000 ft, Cumulus congestus.

TAF: LFBE 211100Z 2112/2212 36008KT CAVOK PROB30 TEMPO 2114/2117 SCT050TCU

Observations et prévisions météorologiques de plus de 4000 aéroports (messages METAR et TAF).

Les stations disponibles sont représentées par des disques jaunes et rouges sur la carte.

Passer la souris dessus pour voir le nom de la station.

Cliquer dessus pour voir les observations et prévisions météorologiques.

Pour changer de carte: cliquez sur les boutons verts avec une croix noire pour zoomer, sur le bouton vert avec un tiret pour effectuer un zoom arrière, ou sur les flèches vertes pour les cartes adjacentes.


METAR-TAF: